Time;durP1;ratioP1;P1;durP2;ratioP2;P2;SDS_P1;SDS_P2;PMS_P1;PMS_P2;Temp;Humidity;BMP_temperature;BMP_pressure;BME280_temperature;BME280_humidity;BME280_pressure;Samples;Min_cycle;Max_cycle;Signal;HPM_P1;HPM_P2
2023/06/14 00:01:45;;;;;;;0.30;0.28;;;17.50;57.10;;;;;;5027150;28;20124;-54
2023/06/14 00:04:12;;;;;;;0.10;0.10;;;17.50;57.40;;;;;;5028050;28;20512;-46
2023/06/14 00:06:38;;;;;;;0.47;0.47;;;17.40;61.00;;;;;;5028879;28;20033;-46
2023/06/14 00:09:04;;;;;;;0.20;0.20;;;17.40;58.50;;;;;;5031137;28;20113;-46
2023/06/14 00:11:31;;;;;;;0.17;0.17;;;17.40;57.90;;;;;;5030865;28;20508;-47
2023/06/14 00:13:57;;;;;;;0.20;0.20;;;17.40;59.00;;;;;;5030955;28;20099;-49
2023/06/14 00:16:23;;;;;;;0.10;0.10;;;17.30;58.70;;;;;;5012994;28;20047;-48
2023/06/14 00:18:49;;;;;;;0.15;0.15;;;17.20;59.50;;;;;;5030919;28;20033;-45
2023/06/14 00:21:14;;;;;;;0.10;0.10;;;17.20;60.10;;;;;;5030712;28;20045;-46
2023/06/14 00:23:40;;;;;;;0.10;0.10;;;17.10;59.70;;;;;;5030781;28;20480;-49
2023/06/14 00:26:06;;;;;;;0.20;0.20;;;17.00;60.70;;;;;;5030954;28;20033;-51
2023/06/14 00:28:31;;;;;;;0.40;0.20;;;17.00;61.80;;;;;;5030863;28;20040;-48
2023/06/14 00:30:57;;;;;;;0.20;0.20;;;16.90;62.20;;;;;;5030942;28;20048;-52
2023/06/14 00:33:22;;;;;;;0.50;0.30;;;16.80;61.80;;;;;;5030564;28;20017;-53
2023/06/14 00:35:48;;;;;;;0.20;0.20;;;16.70;62.60;;;;;;5030682;28;20025;-51
2023/06/14 00:38:14;;;;;;;0.20;0.20;;;16.60;62.00;;;;;;5030499;28;20033;-48
2023/06/14 00:40:39;;;;;;;0.40;0.40;;;16.60;60.90;;;;;;5030344;28;20069;-46
2023/06/14 00:43:05;;;;;;;0.22;0.22;;;16.60;62.30;;;;;;5030570;28;20021;-48
2023/06/14 00:45:35;;;;;;;0.28;0.28;;;16.60;62.20;;;;;;5030661;28;20029;-52
2023/06/14 00:48:02;;;;;;;0.35;0.20;;;16.60;63.20;;;;;;5030770;28;20014;-49
2023/06/14 00:50:29;;;;;;;0.13;0.13;;;16.50;65.80;;;;;;5030570;28;20025;-49
2023/06/14 00:52:56;;;;;;;0.20;0.20;;;16.50;65.10;;;;;;5030612;28;20025;-47
2023/06/14 00:55:21;;;;;;;0.25;0.25;;;16.40;66.90;;;;;;5030246;28;20037;-52
2023/06/14 00:57:47;;;;;;;0.13;0.13;;;16.30;67.20;;;;;;5030451;28;20064;-49
2023/06/14 01:00:14;;;;;;;0.25;0.25;;;16.20;67.10;;;;;;5030406;28;20048;-51
2023/06/14 01:02:40;;;;;;;0.20;0.20;;;16.20;68.00;;;;;;5030494;28;20124;-46
2023/06/14 01:05:07;;;;;;;0.13;0.13;;;16.10;67.80;;;;;;5030497;28;20117;-49
2023/06/14 01:07:58;;;;;;;0.25;0.25;;;16.50;67.80;;;;;;5012602;28;20079;-48
2023/06/14 01:10:51;;;;;;;0.20;0.20;;;16.10;67.40;;;;;;5031212;28;20550;-47
2023/06/14 01:13:36;;;;;;;0.15;0.13;;;16.00;68.70;;;;;;5034426;28;20076;-48
2023/06/14 01:16:03;;;;;;;0.13;0.13;;;16.00;67.90;;;;;;5034409;28;20029;-49
2023/06/14 01:18:29;;;;;;;0.20;0.20;;;16.00;67.20;;;;;;5034482;28;20022;-51
2023/06/14 01:20:55;;;;;;;0.10;0.10;;;16.10;66.80;;;;;;5034569;28;20069;-46
2023/06/14 01:23:22;;;;;;;0.38;0.38;;;16.10;65.10;;;;;;5034214;28;20030;-48
2023/06/14 01:25:52;;;;;;;0.15;0.15;;;16.10;68.60;;;;;;5034081;28;20104;-46
2023/06/14 01:28:20;;;;;;;0.10;0.10;;;16.10;68.40;;;;;;5032828;28;20030;-49
2023/06/14 01:30:49;;;;;;;0.40;0.40;;;16.10;67.60;;;;;;5034467;28;20319;-50
2023/06/14 01:33:18;;;;;;;0.20;0.20;;;16.10;69.20;;;;;;5034170;28;20025;-50
2023/06/14 01:35:46;;;;;;;0.40;0.40;;;16.10;71.00;;;;;;5034111;28;20076;-51
2023/06/14 01:38:19;;;;;;;0.10;0.10;;;16.00;70.60;;;;;;5033997;28;20017;-45
2023/06/14 01:40:45;;;;;;;0.22;0.22;;;16.00;69.00;;;;;;5033717;28;20523;-46
2023/06/14 01:43:13;;;;;;;0.45;0.22;;;15.90;71.50;;;;;;5033593;28;20025;-47
2023/06/14 01:45:40;;;;;;;0.20;0.20;;;16.00;70.40;;;;;;5033971;28;20033;-46
2023/06/14 01:48:06;;;;;;;0.10;0.10;;;16.50;71.30;;;;;;5033954;28;20033;-53
2023/06/14 01:50:32;;;;;;;0.20;0.20;;;16.00;70.30;;;;;;5033873;28;20028;-46
2023/06/14 01:52:58;;;;;;;0.38;0.38;;;16.00;69.80;;;;;;5033578;28;20021;-52
2023/06/14 01:55:24;;;;;;;0.20;0.20;;;16.10;70.60;;;;;;5033288;28;20050;-50
2023/06/14 01:57:51;;;;;;;0.10;0.10;;;16.10;71.80;;;;;;5033445;28;20045;-52
2023/06/14 02:00:18;;;;;;;0.20;0.20;;;16.10;72.40;;;;;;5033491;28;20038;-48
2023/06/14 02:02:44;;;;;;;0.30;0.30;;;16.10;71.20;;;;;;5033642;28;20037;-45
2023/06/14 02:05:10;;;;;;;0.10;0.10;;;16.10;73.60;;;;;;5033504;28;20079;-51
2023/06/14 02:07:36;;;;;;;0.52;0.30;;;16.10;71.30;;;;;;5032935;28;20017;-49
2023/06/14 02:10:02;;;;;;;0.20;0.20;;;16.10;71.60;;;;;;5033409;28;20075;-46
2023/06/14 02:12:28;;;;;;;0.30;0.30;;;16.40;73.10;;;;;;5032948;28;20021;-51
2023/06/14 02:14:54;;;;;;;0.20;0.20;;;16.00;73.80;;;;;;5033136;28;20048;-48
2023/06/14 02:17:20;;;;;;;0.20;0.20;;;16.00;75.40;;;;;;5033246;28;20025;-47
2023/06/14 02:19:45;;;;;;;0.22;0.22;;;15.90;76.70;;;;;;5033022;28;20481;-46
2023/06/14 02:22:11;;;;;;;0.20;0.20;;;15.80;78.90;;;;;;5032562;28;20032;-50
2023/06/14 02:24:37;;;;;;;0.20;0.20;;;15.80;80.00;;;;;;5033264;28;20476;-48
2023/06/14 02:27:03;;;;;;;0.25;0.20;;;15.70;79.60;;;;;;5033087;28;20376;-46
2023/06/14 02:29:29;;;;;;;0.20;0.20;;;15.60;79.80;;;;;;5032836;28;20086;-49
2023/06/14 02:31:54;;;;;;;0.10;0.10;;;15.60;80.20;;;;;;5032905;28;20415;-49
2023/06/14 02:34:21;;;;;;;0.35;0.20;;;15.50;81.80;;;;;;5032936;28;20103;-46
2023/06/14 02:36:47;;;;;;;0.22;0.22;;;15.50;80.40;;;;;;5032630;28;20032;-46
2023/06/14 02:39:13;;;;;;;0.20;0.20;;;15.40;81.20;;;;;;5015510;28;20033;-47
2023/06/14 02:41:39;;;;;;;0.10;0.10;;;15.40;79.50;;;;;;5014604;28;20549;-46
2023/06/14 02:44:06;;;;;;;0.20;0.20;;;15.40;79.60;;;;;;5032712;28;20105;-51
2023/06/14 02:46:32;;;;;;;0.20;0.20;;;15.40;80.70;;;;;;5015146;28;20052;-45
2023/06/14 02:48:58;;;;;;;1.48;1.38;;;15.40;81.30;;;;;;5018756;28;20387;-46
2023/06/14 02:51:24;;;;;;;0.57;0.52;;;15.30;82.40;;;;;;5031068;28;20026;-46
2023/06/14 02:53:50;;;;;;;0.20;0.20;;;15.30;83.20;;;;;;5032221;28;20041;-48
2023/06/14 02:56:17;;;;;;;0.50;0.50;;;15.20;83.60;;;;;;5032294;28;20064;-47
2023/06/14 02:58:43;;;;;;;0.10;0.10;;;15.20;84.70;;;;;;5032489;28;20068;-48
2023/06/14 03:01:12;;;;;;;0.40;0.22;;;15.10;86.70;;;;;;5032351;28;20437;-48
2023/06/14 03:03:38;;;;;;;;;;;15.10;87.90;;;;;;5032862;28;20021;-45
2023/06/14 03:06:04;;;;;;;0.10;0.10;;;15.00;88.90;;;;;;5032194;28;19971;-46
2023/06/14 03:08:38;;;;;;;0.35;0.30;;;15.10;88.70;;;;;;5031981;28;20037;-47
2023/06/14 03:11:05;;;;;;;0.75;0.57;;;15.10;90.00;;;;;;5032156;28;20113;-47
2023/06/14 03:13:32;;;;;;;0.20;0.20;;;15.10;90.90;;;;;;5031913;28;20036;-45
2023/06/14 03:15:58;;;;;;;0.40;0.40;;;15.10;90.90;;;;;;5031867;28;20033;-45
2023/06/14 03:18:23;;;;;;;0.57;0.20;;;15.10;91.80;;;;;;5027499;28;20018;-47
2023/06/14 03:20:50;;;;;;;0.20;0.20;;;15.00;92.80;;;;;;5027431;28;20038;-45
2023/06/14 03:23:17;;;;;;;0.32;0.32;;;15.00;93.30;;;;;;5022482;28;20069;-47
2023/06/14 03:25:42;;;;;;;0.10;0.10;;;15.00;94.10;;;;;;5031939;28;20021;-45
2023/06/14 03:28:08;;;;;;;0.32;0.32;;;15.00;94.60;;;;;;5032076;28;20435;-45
2023/06/14 03:30:33;;;;;;;0.52;0.30;;;14.90;96.10;;;;;;5031826;28;20434;-45
2023/06/14 03:33:01;;;;;;;0.20;0.20;;;14.90;96.70;;;;;;5031747;28;20025;-44
2023/06/14 03:35:27;;;;;;;0.30;0.20;;;14.90;96.90;;;;;;5031746;28;20030;-50
2023/06/14 03:37:53;;;;;;;0.52;0.32;;;14.90;98.00;;;;;;5031771;28;20025;-48
2023/06/14 03:40:20;;;;;;;0.20;0.20;;;14.90;99.10;;;;;;5031662;28;20042;-46
2023/06/14 03:42:46;;;;;;;0.20;0.20;;;14.90;99.30;;;;;;5031348;28;20028;-49
2023/06/14 03:45:11;;;;;;;0.20;0.20;;;14.90;99.90;;;;;;5031702;28;20025;-52
2023/06/14 03:47:37;;;;;;;0.30;0.30;;;14.90;99.90;;;;;;5031444;28;20440;-50
2023/06/14 03:50:04;;;;;;;0.15;0.15;;;14.90;99.90;;;;;;5031524;28;20037;-46
2023/06/14 03:52:31;;;;;;;0.20;0.20;;;14.90;99.90;;;;;;5031324;28;20025;-48
2023/06/14 03:54:56;;;;;;;0.20;0.20;;;14.90;99.90;;;;;;5031503;28;20032;-47
2023/06/14 03:57:23;;;;;;;0.20;0.20;;;14.90;99.90;;;;;;5031196;28;20053;-49
2023/06/14 03:59:49;;;;;;;0.30;0.30;;;14.90;99.90;;;;;;5031310;28;20087;-45
2023/06/14 04:02:17;;;;;;;0.30;0.30;;;14.90;99.90;;;;;;5031212;28;20022;-50
2023/06/14 04:04:48;;;;;;;0.20;0.20;;;14.90;99.90;;;;;;5031328;28;20036;-45
2023/06/14 04:07:15;;;;;;;0.15;0.15;;;14.90;99.90;;;;;;5031187;28;20037;-45
2023/06/14 04:09:41;;;;;;;0.17;0.17;;;14.90;99.90;;;;;;5031090;28;20025;-49
2023/06/14 04:12:08;;;;;;;0.22;0.22;;;14.90;99.90;;;;;;5031135;28;20017;-47
2023/06/14 04:14:34;;;;;;;0.20;0.20;;;14.90;99.90;;;;;;5030521;28;20118;-48
2023/06/14 04:17:00;;;;;;;0.45;0.45;;;14.90;99.90;;;;;;5030824;28;20032;-45
2023/06/14 04:19:26;;;;;;;0.28;0.28;;;14.90;99.90;;;;;;5030704;28;20063;-45
2023/06/14 04:21:52;;;;;;;0.45;0.45;;;14.80;99.90;;;;;;5030839;28;20125;-48
2023/06/14 04:24:18;;;;;;;0.20;0.20;;;14.80;99.90;;;;;;5030927;28;20025;-45
2023/06/14 04:26:45;;;;;;;0.20;0.20;;;14.70;99.90;;;;;;5030923;28;20025;-51
2023/06/14 04:29:15;;;;;;;0.30;0.30;;;14.70;99.90;;;;;;5031000;28;20112;-53
2023/06/14 04:31:44;;;;;;;0.50;0.50;;;14.70;99.90;;;;;;5028809;28;20053;-46
2023/06/14 04:34:15;;;;;;;0.20;0.20;;;14.60;99.90;;;;;;5029967;28;20189;-44
2023/06/14 04:36:43;;;;;;;0.13;0.13;;;14.70;99.90;;;;;;5028194;28;20396;-46
2023/06/14 04:39:08;;;;;;;0.20;0.20;;;14.70;99.90;;;;;;5029523;28;20017;-46
2023/06/14 04:41:34;;;;;;;0.10;0.10;;;14.70;99.90;;;;;;5028216;28;20389;-48
2023/06/14 04:44:03;;;;;;;0.20;0.20;;;14.70;99.90;;;;;;5029201;28;20036;-52
2023/06/14 04:46:30;;;;;;;0.20;0.20;;;14.80;99.90;;;;;;5029091;28;20092;-46
2023/06/14 04:48:56;;;;;;;0.20;0.20;;;14.90;99.90;;;;;;5028561;28;20251;-53
2023/06/14 04:51:29;;;;;;;0.55;0.52;;;15.00;99.90;;;;;;5029676;28;20025;-51
2023/06/14 04:53:58;;;;;;;0.28;0.28;;;15.00;99.90;;;;;;5027977;28;20112;-49
2023/06/14 04:56:25;;;;;;;0.20;0.20;;;15.30;99.90;;;;;;5014733;28;20038;-46
2023/06/14 04:58:52;;;;;;;0.15;0.15;;;15.60;99.90;;;;;;5027309;28;20048;-49
2023/06/14 05:01:18;;;;;;;1.10;0.55;;;15.90;99.90;;;;;;5030576;28;20033;-45
2023/06/14 05:03:45;;;;;;;0.20;0.20;;;16.30;99.90;;;;;;5030732;28;20269;-49
2023/06/14 05:06:11;;;;;;;0.20;0.20;;;16.60;99.90;;;;;;5030490;28;20030;-55
2023/06/14 05:08:37;;;;;;;0.20;0.20;;;16.80;99.90;;;;;;5030530;28;20023;-47
2023/06/14 05:11:03;;;;;;;0.30;0.30;;;16.90;99.90;;;;;;5012394;28;20045;-52
2023/06/14 05:13:28;;;;;;;0.30;0.20;;;17.00;99.90;;;;;;5030529;28;20025;-47
2023/06/14 05:15:54;;;;;;;0.20;0.20;;;17.10;99.90;;;;;;5030312;28;20501;-47
2023/06/14 05:18:20;;;;;;;0.32;0.30;;;17.10;99.90;;;;;;5030364;28;20017;-50
2023/06/14 05:20:46;;;;;;;0.25;0.25;;;17.00;99.90;;;;;;5030486;28;20053;-47
2023/06/14 05:23:14;;;;;;;0.20;0.20;;;17.00;99.90;;;;;;5030180;28;20022;-50
2023/06/14 05:25:43;;;;;;;0.70;0.68;;;16.90;99.90;;;;;;5028693;28;20025;-45
2023/06/14 05:28:09;;;;;;;0.15;0.15;;;16.90;99.90;;;;;;5029707;28;20030;-46
2023/06/14 05:30:35;;;;;;;0.20;0.20;;;16.80;99.90;;;;;;5013196;28;20030;-46
2023/06/14 05:33:01;;;;;;;0.30;0.30;;;16.80;99.90;;;;;;5011674;28;20022;-48
2023/06/14 05:35:26;;;;;;;0.47;0.40;;;16.90;99.90;;;;;;5015918;28;20466;-46
2023/06/14 05:37:53;;;;;;;0.30;0.20;;;16.90;99.90;;;;;;5014704;28;20022;-51
2023/06/14 05:40:19;;;;;;;0.20;0.20;;;17.00;99.90;;;;;;5017693;28;20050;-45
2023/06/14 05:42:45;;;;;;;0.52;0.52;;;17.10;99.90;;;;;;5027077;28;20025;-47
2023/06/14 05:45:11;;;;;;;0.20;0.20;;;17.30;99.90;;;;;;5030150;28;20025;-45
2023/06/14 05:47:37;;;;;;;0.57;0.40;;;17.40;99.90;;;;;;5030192;28;20029;-46
2023/06/14 05:50:03;;;;;;;0.20;0.20;;;17.70;99.90;;;;;;5030274;28;20112;-49
2023/06/14 05:52:29;;;;;;;0.57;0.30;;;18.00;99.90;;;;;;5030029;28;20018;-47
2023/06/14 05:54:55;;;;;;;0.30;0.30;;;18.50;99.90;;;;;;5029676;28;20021;-45
2023/06/14 05:57:20;;;;;;;0.30;0.30;;;19.10;99.90;;;;;;5030347;28;20045;-50
2023/06/14 05:59:46;;;;;;;1.15;0.50;;;19.80;99.90;;;;;;5032855;28;20040;-46
2023/06/14 06:02:12;;;;;;;0.63;0.50;;;20.40;99.90;;;;;;5019218;28;20022;-49
2023/06/14 06:04:37;;;;;;;0.35;0.32;;;20.90;99.90;;;;;;5023318;28;20103;-44
2023/06/14 06:07:03;;;;;;;0.30;0.30;;;21.40;99.90;;;;;;5020477;28;20477;-48
2023/06/14 06:09:29;;;;;;;0.60;0.30;;;21.90;99.90;;;;;;5021100;28;20029;-45
2023/06/14 06:11:55;;;;;;;0.80;0.52;;;22.20;99.90;;;;;;5022472;28;20021;-48
2023/06/14 06:14:21;;;;;;;0.77;0.40;;;22.60;99.40;;;;;;5022607;28;20033;-45
2023/06/14 06:16:46;;;;;;;0.88;0.47;;;23.00;97.90;;;;;;5024289;28;20022;-46
2023/06/14 06:19:12;;;;;;;0.55;0.40;;;23.50;97.60;;;;;;5019134;28;20480;-50
2023/06/14 06:21:38;;;;;;;0.35;0.30;;;23.90;96.80;;;;;;5022742;28;20044;-52
2023/06/14 06:24:05;;;;;;;0.80;0.60;;;24.20;95.50;;;;;;5022797;28;20025;-45
2023/06/14 06:26:31;;;;;;;0.43;0.43;;;24.50;94.00;;;;;;5026203;28;20030;-52
2023/06/14 06:28:57;;;;;;;0.52;0.52;;;24.70;93.30;;;;;;5025191;28;20122;-45
2023/06/14 06:31:23;;;;;;;0.77;0.45;;;25.10;94.00;;;;;;5020753;28;20026;-48
2023/06/14 06:33:49;;;;;;;0.43;0.43;;;25.20;92.80;;;;;;5026222;28;20489;-47
2023/06/14 06:36:15;;;;;;;1.27;0.55;;;25.50;93.20;;;;;;5020893;28;20030;-52
2023/06/14 06:38:41;;;;;;;0.50;0.50;;;25.80;90.90;;;;;;5024551;28;20112;-49
2023/06/14 06:41:06;;;;;;;0.38;0.30;;;25.90;90.20;;;;;;5025688;28;20468;-51
2023/06/14 06:43:32;;;;;;;0.30;0.30;;;26.10;91.10;;;;;;5031432;28;20087;-52
2023/06/14 06:45:58;;;;;;;0.50;0.50;;;26.40;91.50;;;;;;5006795;28;20079;-49
2023/06/14 06:48:23;;;;;;;0.50;0.43;;;26.60;90.80;;;;;;5028726;28;20025;-49
2023/06/14 06:50:49;;;;;;;0.80;0.60;;;26.90;90.40;;;;;;5021955;28;20024;-48
2023/06/14 06:53:15;;;;;;;0.50;0.50;;;27.10;89.40;;;;;;5029684;28;20037;-50
2023/06/14 06:55:40;;;;;;;0.60;0.40;;;27.10;87.70;;;;;;5018158;28;20036;-54
2023/06/14 06:58:06;;;;;;;0.50;0.45;;;27.30;88.60;;;;;;5021933;28;20037;-51
2023/06/14 07:00:32;;;;;;;0.30;0.30;;;27.60;88.60;;;;;;5032557;28;20480;-52
2023/06/14 07:02:57;;;;;;;0.50;0.50;;;27.60;88.00;;;;;;5032527;28;20021;-47
2023/06/14 07:05:23;;;;;;;0.40;0.40;;;27.80;88.20;;;;;;5029502;28;20056;-45
2023/06/14 07:07:49;;;;;;;0.52;0.43;;;28.10;85.40;;;;;;5027208;28;20493;-48
2023/06/14 07:10:15;;;;;;;1.42;0.90;;;28.20;84.70;;;;;;5030057;28;20029;-45
2023/06/14 07:12:40;;;;;;;0.70;0.43;;;28.20;83.10;;;;;;5030718;28;20472;-46
2023/06/14 07:15:10;;;;;;;0.63;0.47;;;28.20;80.70;;;;;;5029072;28;20028;-46
2023/06/14 07:17:36;;;;;;;0.38;0.38;;;28.50;83.70;;;;;;5031093;28;20021;-46
2023/06/14 07:20:12;;;;;;;0.45;0.40;;;28.40;78.40;;;;;;5028542;28;20030;-44
2023/06/14 07:22:40;;;;;;;0.73;0.50;;;28.50;81.90;;;;;;5028730;28;20021;-44
2023/06/14 07:25:06;;;;;;;;;;;28.80;81.40;;;;;;5028535;28;20033;-47
2023/06/14 07:27:32;;;;;;;0.77;0.50;;;29.00;79.70;;;;;;5032058;28;20253;-50
2023/06/14 07:29:57;;;;;;;0.50;0.40;;;29.30;79.90;;;;;;5025760;28;20026;-53
2023/06/14 07:32:23;;;;;;;1.00;0.50;;;29.30;80.70;;;;;;5028941;28;20029;-53
2023/06/14 07:34:48;;;;;;;0.40;0.40;;;29.40;75.10;;;;;;5031280;28;20017;-57
2023/06/14 07:37:14;;;;;;;0.63;0.43;;;29.60;78.90;;;;;;5028733;28;20030;-46
2023/06/14 07:39:40;;;;;;;0.50;0.47;;;29.90;76.60;;;;;;5026991;28;20507;-57
2023/06/14 07:42:06;;;;;;;0.60;0.60;;;29.80;75.20;;;;;;5009254;28;20499;-49
2023/06/14 07:44:32;;;;;;;1.10;0.70;;;30.30;76.70;;;;;;5031259;28;20435;-51
2023/06/14 07:46:59;;;;;;;0.50;0.50;;;30.50;74.20;;;;;;5029272;28;20029;-49
2023/06/14 07:49:25;;;;;;;0.57;0.45;;;30.80;74.80;;;;;;5028909;28;20044;-50
2023/06/14 07:51:51;;;;;;;0.68;0.50;;;31.00;75.00;;;;;;5018168;28;20124;-54
2023/06/14 07:54:17;;;;;;;1.45;0.68;;;31.30;74.40;;;;;;5012721;28;20105;-45
2023/06/14 07:56:43;;;;;;;0.60;0.50;;;31.20;71.40;;;;;;5013936;28;20061;-47
2023/06/14 07:59:08;;;;;;;0.75;0.57;;;31.50;74.00;;;;;;5028160;28;20083;-53
2023/06/14 08:01:35;;;;;;;0.98;0.68;;;31.90;72.90;;;;;;5030428;28;20488;-51
2023/06/14 08:04:01;;;;;;;1.23;0.60;;;32.00;70.60;;;;;;5031191;28;20049;-51
2023/06/14 08:06:27;;;;;;;0.93;0.80;;;32.20;70.60;;;;;;5021264;28;20029;-50
2023/06/14 08:08:52;;;;;;;0.90;0.60;;;32.60;67.90;;;;;;5025299;28;20071;-49
2023/06/14 08:11:18;;;;;;;0.50;0.50;;;32.60;66.20;;;;;;5030034;28;20026;-48
2023/06/14 08:13:44;;;;;;;0.63;0.50;;;32.70;68.30;;;;;;5028381;28;20383;-50
2023/06/14 08:16:10;;;;;;;1.00;0.60;;;32.90;66.80;;;;;;5012118;28;20032;-55
2023/06/14 08:18:36;;;;;;;0.68;0.57;;;33.30;67.20;;;;;;5030949;28;20112;-47
2023/06/14 08:21:02;;;;;;;0.98;0.63;;;33.30;68.10;;;;;;5030264;28;20453;-52
2023/06/14 08:23:28;;;;;;;0.50;0.40;;;33.00;65.20;;;;;;5031170;28;20021;-47
2023/06/14 08:25:54;;;;;;;0.60;0.60;;;33.00;66.20;;;;;;5031157;28;20029;-52
2023/06/14 08:28:20;;;;;;;2.92;0.80;;;33.20;65.20;;;;;;5030723;28;20362;-53
2023/06/14 08:30:46;;;;;;;0.50;0.50;;;33.30;64.70;;;;;;5029999;28;20033;-43
2023/06/14 08:33:11;;;;;;;0.52;0.50;;;33.20;65.70;;;;;;5028786;28;20442;-48
2023/06/14 08:35:39;;;;;;;0.63;0.50;;;33.20;64.90;;;;;;5030565;28;20029;-50
2023/06/14 08:38:05;;;;;;;1.42;0.43;;;33.60;65.20;;;;;;5029866;28;20047;-53
2023/06/14 08:40:31;;;;;;;0.40;0.40;;;33.80;62.90;;;;;;5029884;28;20048;-58
2023/06/14 08:42:57;;;;;;;0.65;0.60;;;33.50;65.00;;;;;;5030195;28;20014;-50
2023/06/14 08:45:24;;;;;;;0.68;0.65;;;33.40;60.70;;;;;;5030652;28;20021;-51
2023/06/14 08:47:57;;;;;;;0.70;0.60;;;33.00;61.80;;;;;;5030788;28;20096;-52
2023/06/14 08:50:29;;;;;;;0.68;0.60;;;33.10;65.40;;;;;;5030226;28;20036;-48
2023/06/14 08:53:00;;;;;;;0.60;0.52;;;33.00;61.40;;;;;;5029976;28;20051;-46
2023/06/14 08:55:27;;;;;;;0.75;0.70;;;33.00;63.20;;;;;;5030165;28;20033;-51
2023/06/14 08:57:57;;;;;;;0.60;0.52;;;32.80;61.30;;;;;;5030139;28;20042;-46
2023/06/14 09:00:25;;;;;;;0.90;0.70;;;32.80;62.50;;;;;;5030248;28;20120;-49
2023/06/14 09:02:55;;;;;;;0.43;0.43;;;33.10;62.60;;;;;;5030341;28;20025;-51
2023/06/14 09:05:23;;;;;;;1.05;0.70;;;33.50;63.20;;;;;;5030148;28;20034;-47
2023/06/14 09:07:50;;;;;;;0.60;0.60;;;33.70;62.80;;;;;;5030613;28;20018;-51
2023/06/14 09:10:16;;;;;;;1.25;0.70;;;33.70;62.80;;;;;;5030657;28;20278;-49
2023/06/14 09:12:42;;;;;;;0.60;0.60;;;33.30;59.00;;;;;;5028492;28;20022;-49
2023/06/14 09:15:08;;;;;;;0.70;0.70;;;33.10;60.50;;;;;;5030009;28;20025;-55
2023/06/14 09:17:38;;;;;;;0.73;0.60;;;33.00;61.50;;;;;;5030003;28;20109;-47
2023/06/14 09:20:07;;;;;;;0.90;0.65;;;33.10;61.60;;;;;;5030044;28;20484;-45
2023/06/14 09:22:33;;;;;;;0.55;0.40;;;33.10;59.20;;;;;;5030215;28;20033;-53
2023/06/14 09:24:59;;;;;;;0.45;0.43;;;33.40;62.00;;;;;;5029523;28;20037;-54
2023/06/14 09:27:29;;;;;;;0.45;0.45;;;34.00;62.90;;;;;;5026441;28;20079;-56
2023/06/14 09:29:55;;;;;;;0.75;0.60;;;33.50;59.30;;;;;;5021746;28;20104;-57
2023/06/14 09:32:22;;;;;;;0.80;0.65;;;32.90;60.70;;;;;;5026084;28;20139;-49
2023/06/14 09:34:47;;;;;;;0.55;0.55;;;33.20;64.40;;;;;;5025484;28;20549;-44
2023/06/14 09:37:25;;;;;;;0.77;0.70;;;33.40;63.40;;;;;;5026046;28;20113;-52
2023/06/14 09:39:51;;;;;;;1.10;0.70;;;33.90;62.10;;;;;;5033278;28;20531;-45
2023/06/14 09:42:19;;;;;;;1.02;0.70;;;34.10;64.80;;;;;;5024595;28;20120;-51
2023/06/14 09:44:47;;;;;;;0.90;0.60;;;34.20;60.80;;;;;;5028879;28;20117;-45
2023/06/14 09:47:15;;;;;;;1.35;0.80;;;34.10;62.20;;;;;;5022974;28;20029;-43
2023/06/14 09:49:41;;;;;;;0.70;0.70;;;34.10;63.20;;;;;;5019142;28;20030;-45
2023/06/14 09:52:08;;;;;;;1.52;0.60;;;34.50;60.10;;;;;;5023647;28;20032;-46
2023/06/14 09:54:40;;;;;;;1.00;0.70;;;34.80;63.60;;;;;;5018936;28;20509;-43
2023/06/14 09:57:07;;;;;;;0.82;0.60;;;35.00;59.90;;;;;;5023530;28;20103;-44
2023/06/14 09:59:34;;;;;;;1.40;0.73;;;34.40;59.80;;;;;;5031839;28;20484;-45
2023/06/14 10:02:07;;;;;;;0.50;0.40;;;34.80;61.80;;;;;;5032997;28;20037;-47
2023/06/14 10:04:34;;;;;;;0.95;0.60;;;34.70;57.90;;;;;;5032859;28;20029;-49
2023/06/14 10:07:02;;;;;;;0.52;0.52;;;34.50;59.10;;;;;;5027463;28;20640;-44
2023/06/14 10:09:30;;;;;;;0.60;0.52;;;34.30;59.90;;;;;;5020309;28;20050;-43
2023/06/14 10:11:56;;;;;;;1.17;0.80;;;34.40;56.60;;;;;;5020200;28;20018;-52
2023/06/14 10:14:21;;;;;;;1.25;0.93;;;34.80;59.90;;;;;;5016948;28;20120;-47
2023/06/14 10:17:10;;;;;;;0.73;0.65;;;34.50;58.90;;;;;;5023678;28;20105;-50
2023/06/14 10:19:36;;;;;;;0.70;0.60;;;34.50;56.10;;;;;;5007606;28;20092;-50
2023/06/14 10:22:07;;;;;;;0.50;0.47;;;34.50;58.80;;;;;;5022368;28;20432;-46
2023/06/14 10:24:42;;;;;;;1.20;0.90;;;34.80;59.50;;;;;;5023710;28;20496;-45
2023/06/14 10:27:11;;;;;;;0.60;0.60;;;34.30;59.90;;;;;;5032537;28;20123;-46
2023/06/14 10:29:57;;;;;;;0.88;0.68;;;34.60;58.60;;;;;;5032858;28;20393;-47
2023/06/14 10:32:25;;;;;;;0.70;0.70;;;34.80;55.70;;;;;;5032777;28;20037;-51
2023/06/14 10:35:15;;;;;;;1.02;0.80;;;34.70;54.70;;;;;;5033014;28;20023;-44
2023/06/14 10:37:41;;;;;;;1.38;0.80;;;34.70;54.70;;;;;;5030141;28;20029;-50
2023/06/14 10:40:08;;;;;;;1.30;0.90;;;34.80;52.70;;;;;;5020421;28;20037;-43
2023/06/14 10:42:34;;;;;;;2.15;0.68;;;35.10;56.90;;;;;;5021283;28;20026;-53
2023/06/14 10:45:00;;;;;;;0.60;0.57;;;35.20;52.80;;;;;;5017262;28;20068;-51
2023/06/14 10:47:35;;;;;;;1.00;0.85;;;35.20;50.30;;;;;;5015140;28;20030;-48
2023/06/14 10:50:06;;;;;;;0.52;0.52;;;34.70;50.80;;;;;;5026114;28;20100;-43
2023/06/14 10:52:39;;;;;;;1.05;0.65;;;35.00;57.80;;;;;;5013261;28;20061;-45
2023/06/14 10:55:11;;;;;;;0.80;0.60;;;34.20;53.20;;;;;;5026685;28;20033;-46
2023/06/14 10:57:39;;;;;;;1.00;0.65;;;33.90;55.00;;;;;;5028388;28;20053;-54
2023/06/14 11:00:16;;;;;;;1.33;0.73;;;33.90;52.60;;;;;;5031355;28;20053;-47
2023/06/14 11:03:09;;;;;;;0.73;0.70;;;33.40;49.30;;;;;;5032382;28;20467;-51
2023/06/14 11:05:49;;;;;;;1.05;0.70;;;33.50;51.60;;;;;;5032558;28;20112;-50
2023/06/14 11:08:34;;;;;;;0.65;0.57;;;33.70;52.00;;;;;;5018795;28;20032;-48
2023/06/14 11:11:01;;;;;;;0.90;0.73;;;33.60;51.00;;;;;;5032581;28;20033;-48
2023/06/14 11:13:28;;;;;;;0.85;0.73;;;33.70;52.00;;;;;;5032183;28;20032;-55
2023/06/14 11:15:56;;;;;;;1.13;0.93;;;34.10;56.20;;;;;;5032515;28;20033;-51
2023/06/14 11:18:25;;;;;;;1.33;0.70;;;34.10;49.80;;;;;;5032376;28;20167;-44
2023/06/14 11:20:50;;;;;;;0.68;0.68;;;33.80;49.20;;;;;;5032367;28;20038;-47
2023/06/14 11:23:16;;;;;;;1.05;0.73;;;33.80;54.10;;;;;;5032011;28;20028;-46
2023/06/14 11:25:42;;;;;;;0.80;0.80;;;33.70;51.00;;;;;;5028668;28;20500;-50
2023/06/14 11:28:08;;;;;;;1.05;0.80;;;33.60;51.60;;;;;;5031434;28;20071;-48
2023/06/14 11:30:33;;;;;;;1.45;1.00;;;33.70;54.00;;;;;;5026193;28;20641;-45
2023/06/14 11:32:59;;;;;;;1.20;1.00;;;33.50;51.10;;;;;;5015523;28;20074;-55
2023/06/14 11:35:26;;;;;;;0.70;0.70;;;33.70;54.20;;;;;;5020122;28;20017;-51
2023/06/14 11:37:57;;;;;;;0.80;0.80;;;33.70;54.40;;;;;;5022597;28;20034;-50
2023/06/14 11:40:24;;;;;;;0.73;0.73;;;33.90;53.50;;;;;;5016280;28;20044;-46
2023/06/14 11:42:57;;;;;;;1.13;0.77;;;33.90;54.90;;;;;;5031097;28;20013;-41
2023/06/14 11:45:23;;;;;;;0.55;0.52;;;34.00;54.50;;;;;;5031427;28;20080;-54
2023/06/14 11:47:48;;;;;;;1.58;0.93;;;34.30;55.40;;;;;;5031499;28;20473;-48
2023/06/14 11:50:14;;;;;;;0.77;0.60;;;34.40;52.80;;;;;;5029782;28;20060;-51
2023/06/14 11:52:40;;;;;;;1.02;0.93;;;34.30;52.90;;;;;;5018827;28;20030;-44
2023/06/14 11:55:06;;;;;;;1.15;0.80;;;34.40;51.50;;;;;;5015940;28;20025;-59
2023/06/14 11:57:36;;;;;;;0.93;0.75;;;34.40;51.00;;;;;;5019899;28;20045;-47
2023/06/14 12:00:07;;;;;;;0.88;0.80;;;34.60;53.90;;;;;;5030306;28;20384;-43
2023/06/14 12:02:33;;;;;;;1.80;0.80;;;34.50;52.10;;;;;;5012338;28;20481;-42
2023/06/14 12:05:06;;;;;;;0.68;0.68;;;34.20;51.30;;;;;;5027016;28;20022;-55
2023/06/14 12:07:32;;;;;;;1.40;0.98;;;34.20;56.10;;;;;;5014381;28;20030;-44
2023/06/14 12:09:57;;;;;;;1.02;0.80;;;34.10;52.90;;;;;;5017697;28;20021;-54
2023/06/14 12:12:27;;;;;;;0.70;0.70;;;33.40;50.00;;;;;;5024020;28;20037;-54
2023/06/14 12:14:55;;;;;;;1.05;0.68;;;33.20;51.50;;;;;;5018778;28;20025;-45
2023/06/14 12:17:22;;;;;;;0.80;0.73;;;32.80;53.30;;;;;;5017346;28;20404;-53
2023/06/14 12:19:49;;;;;;;0.93;0.68;;;32.80;53.90;;;;;;5026393;28;20021;-49
2023/06/14 12:22:16;;;;;;;0.88;0.70;;;33.00;53.10;;;;;;5027641;28;20030;-44
2023/06/14 12:24:43;;;;;;;1.13;0.90;;;33.10;53.80;;;;;;5023038;28;20021;-51
2023/06/14 12:27:11;;;;;;;0.75;0.75;;;33.10;51.70;;;;;;5024954;28;20476;-45
2023/06/14 12:29:37;;;;;;;1.42;0.95;;;32.70;51.60;;;;;;5022177;28;20103;-43
2023/06/14 12:32:03;;;;;;;0.75;0.75;;;32.40;49.60;;;;;;5026216;28;20064;-51
2023/06/14 12:34:28;;;;;;;0.75;0.75;;;32.20;51.80;;;;;;5006736;28;20224;-48
2023/06/14 12:36:54;;;;;;;1.17;0.77;;;31.80;50.00;;;;;;5024500;28;20014;-47
2023/06/14 12:39:20;;;;;;;1.13;1.02;;;31.90;49.60;;;;;;5026714;28;20490;-43
2023/06/14 12:41:47;;;;;;;1.17;0.82;;;32.00;51.30;;;;;;5026834;28;20034;-54
2023/06/14 12:44:13;;;;;;;0.88;0.80;;;32.30;54.30;;;;;;5025954;28;20067;-48
2023/06/14 12:46:39;;;;;;;1.30;0.70;;;32.00;51.10;;;;;;5019738;28;20057;-46
2023/06/14 12:49:07;;;;;;;1.27;0.90;;;31.70;53.50;;;;;;5011521;28;20452;-50